Time;durP1;ratioP1;P1;durP2;ratioP2;P2;SDS_P1;SDS_P2;PMS_P1;PMS_P2;Temp;Humidity;BMP_temperature;BMP_pressure;BME280_temperature;BME280_humidity;BME280_pressure;Samples;Min_cycle;Max_cycle;Signal;HPM_P1;HPM_P2
2023/01/14 00:01:30;;;;;;;5.23;2.10;;;;;;;;;;4950777;28;20495;-73
2023/01/14 00:04:18;;;;;;;6.90;2.03;;;;;;;;;;4947136;28;20455;-71
2023/01/14 00:07:16;;;;;;;7.03;1.63;;;;;;;;;;4959371;28;20472;-71
2023/01/14 00:10:13;;;;;;;4.30;1.90;;;;;;;;;;4956654;28;20480;-72
2023/01/14 00:13:05;;;;;;;3.23;1.63;;;;;;;;;;4959013;28;20463;-72
2023/01/14 00:15:56;;;;;;;3.00;1.80;;;;;;;;;;4949870;28;20479;-72
2023/01/14 00:18:47;;;;;;;3.97;2.50;;;;;;;;;;4944912;28;20464;-73
2023/01/14 00:21:40;;;;;;;5.37;2.07;;;;;;;;;;4953556;28;20990;-73
2023/01/14 00:24:29;;;;;;;4.00;1.80;;;;;;;;;;4941365;28;20469;-74
2023/01/14 00:27:20;;;;;;;9.53;2.80;;;;;;;;;;4946066;28;20850;-73
2023/01/14 00:30:24;;;;;;;5.30;2.10;;;;;;;;;;4938153;28;20487;-72
2023/01/14 00:33:18;;;;;;;7.30;2.33;;;;;;;;;;4943732;28;20470;-71
2023/01/14 00:36:13;;;;;;;7.00;1.93;;;;;;;;;;4949327;28;20468;-72
2023/01/14 00:39:04;;;;;;;6.33;1.70;;;;;;;;;;4947843;28;20512;-71
2023/01/14 00:41:53;;;;;;;6.30;1.50;;;;;;;;;;4944443;28;20842;-73
2023/01/14 00:44:46;;;;;;;6.33;2.03;;;;;;;;;;4946796;28;20479;-72
2023/01/14 00:47:37;;;;;;;5.83;2.00;;;;;;;;;;4952081;28;20487;-71
2023/01/14 00:50:27;;;;;;;8.57;2.27;;;;;;;;;;4941900;28;20483;-74
2023/01/14 00:53:16;;;;;;;3.80;1.23;;;;;;;;;;4949167;28;20963;-72
2023/01/14 00:56:06;;;;;;;3.20;1.47;;;;;;;;;;4942671;28;20486;-73
2023/01/14 00:59:02;;;;;;;9.03;2.10;;;;;;;;;;4946123;28;20832;-73
2023/01/14 01:01:56;;;;;;;5.37;1.80;;;;;;;;;;4937421;28;20487;-72
2023/01/14 01:04:46;;;;;;;5.33;1.60;;;;;;;;;;4943552;28;20986;-73
2023/01/14 01:07:34;;;;;;;4.83;1.70;;;;;;;;;;4947020;28;20483;-72
2023/01/14 01:10:34;;;;;;;;;;;;;;;;;;;;;
2023/01/14 01:13:29;;;;;;;3.70;1.93;;;;;;;;;;4903396;29;20476;-75
2023/01/14 01:16:23;;;;;;;3.77;1.77;;;;;;;;;;4897004;29;20459;-73
2023/01/14 01:19:16;;;;;;;6.50;2.13;;;;;;;;;;4906752;29;20496;-73
2023/01/14 01:22:07;;;;;;;4.17;1.87;;;;;;;;;;4886746;29;20483;-74
2023/01/14 01:24:56;;;;;;;8.10;2.70;;;;;;;;;;4892709;29;20489;-72
2023/01/14 01:27:48;;;;;;;4.37;1.50;;;;;;;;;;4884712;29;20474;-73
2023/01/14 01:30:38;;;;;;;7.00;1.70;;;;;;;;;;4884891;29;20486;-73
2023/01/14 01:33:28;;;;;;;4.07;2.00;;;;;;;;;;4884353;29;20485;-71
2023/01/14 01:36:25;;;;;;;4.83;1.57;;;;;;;;;;4885263;29;20616;-74
2023/01/14 01:39:13;;;;;;;5.37;2.07;;;;;;;;;;4883222;29;20576;-73
2023/01/14 01:42:02;;;;;;;2.90;1.10;;;;;;;;;;4881727;29;20490;-73
2023/01/14 01:45:06;;;;;;;4.87;1.50;;;;;;;;;;4887561;29;20557;-74
2023/01/14 01:48:01;;;;;;;6.67;1.73;;;;;;;;;;4895650;29;21016;-74
2023/01/14 01:50:51;;;;;;;4.90;1.87;;;;;;;;;;4881301;29;20482;-75
2023/01/14 01:53:48;;;;;;;4.13;1.77;;;;;;;;;;4886313;29;20455;-73
2023/01/14 01:56:42;;;;;;;5.30;1.63;;;;;;;;;;4888770;29;20857;-72
2023/01/14 01:59:35;;;;;;;9.20;2.10;;;;;;;;;;4891937;29;20998;-74
2023/01/14 02:02:26;;;;;;;3.53;1.60;;;;;;;;;;4888176;29;20490;-74
2023/01/14 02:05:15;;;;;;;8.30;1.60;;;;;;;;;;4891632;29;20989;-72
2023/01/14 02:08:04;;;;;;;4.13;1.57;;;;;;;;;;4897372;29;20869;-73
2023/01/14 02:11:05;;;;;;;3.40;1.60;;;;;;;;;;4887564;29;20478;-73
2023/01/14 02:13:59;;;;;;;3.40;1.80;;;;;;;;;;4889997;29;20462;-74
2023/01/14 02:16:59;;;;;;;5.10;1.57;;;;;;;;;;4888252;29;20458;-72
2023/01/14 02:19:53;;;;;;;3.67;2.43;;;;;;;;;;4877241;29;20505;-74
2023/01/14 02:23:00;;;;;;;3.33;1.53;;;;;;;;;;4891982;29;20465;-74
2023/01/14 02:25:59;;;;;;;2.80;1.50;;;;;;;;;;4856396;29;20477;-74
2023/01/14 02:29:00;;;;;;;5.50;1.60;;;;;;;;;;4887758;29;20500;-74
2023/01/14 02:31:54;;;;;;;6.77;1.80;;;;;;;;;;4885457;29;20938;-73
2023/01/14 02:34:46;;;;;;;2.47;1.57;;;;;;;;;;4891025;29;20526;-74
2023/01/14 02:37:38;;;;;;;9.53;2.20;;;;;;;;;;4886333;29;20505;-72
2023/01/14 02:40:29;;;;;;;4.60;1.73;;;;;;;;;;4887075;29;20490;-72
2023/01/14 02:46:32;;;;;;;6.53;2.20;;;;;;;;;;4887058;29;20465;-72
2023/01/14 02:49:24;;;;;;;3.80;1.47;;;;;;;;;;4890753;29;20477;-74
2023/01/14 02:52:21;;;;;;;3.80;2.00;;;;;;;;;;4881381;29;20486;-73
2023/01/14 02:55:29;;;;;;;5.10;1.90;;;;;;;;;;4886032;29;20462;-74
2023/01/14 02:58:28;;;;;;;10.00;1.87;;;;;;;;;;4891604;29;20469;-73
2023/01/14 03:01:33;;;;;;;5.13;1.60;;;;;;;;;;4881724;29;20753;-73
2023/01/14 03:04:38;;;;;;;5.20;1.60;;;;;;;;;;4886186;29;20521;-75
2023/01/14 03:07:38;;;;;;;6.67;1.70;;;;;;;;;;4886609;29;20478;-74
2023/01/14 03:10:32;;;;;;;3.90;1.40;;;;;;;;;;4885727;29;20489;-74
2023/01/14 03:13:25;;;;;;;3.63;2.57;;;;;;;;;;4891911;29;20481;-73
2023/01/14 03:16:17;;;;;;;5.23;1.70;;;;;;;;;;4889515;29;20451;-73
2023/01/14 03:19:14;;;;;;;3.43;1.70;;;;;;;;;;4884068;29;20553;-73
2023/01/14 03:22:05;;;;;;;5.93;1.43;;;;;;;;;;4892531;29;20483;-74
2023/01/14 03:24:56;;;;;;;4.00;1.53;;;;;;;;;;4895734;29;22465;-73
2023/01/14 03:27:47;;;;;;;4.77;1.20;;;;;;;;;;4893320;29;20478;-73
2023/01/14 03:30:38;;;;;;;2.13;1.30;;;;;;;;;;4890963;29;20640;-71
2023/01/14 03:33:34;;;;;;;4.10;1.70;;;;;;;;;;4891523;29;20466;-73
2023/01/14 03:36:24;;;;;;;4.70;1.50;;;;;;;;;;4890428;29;20469;-74
2023/01/14 03:39:16;;;;;;;3.87;1.40;;;;;;;;;;4887714;29;20820;-73
2023/01/14 03:42:22;;;;;;;3.93;1.50;;;;;;;;;;4899152;29;20610;-73
2023/01/14 03:45:14;;;;;;;3.47;1.30;;;;;;;;;;4888229;29;20477;-73
2023/01/14 03:48:06;;;;;;;3.43;1.33;;;;;;;;;;4880540;29;20482;-75
2023/01/14 03:51:00;;;;;;;3.77;1.20;;;;;;;;;;4879856;29;20482;-73
2023/01/14 03:53:57;;;;;;;5.73;1.60;;;;;;;;;;4889642;29;20477;-71
2023/01/14 03:56:56;;;;;;;6.00;1.50;;;;;;;;;;4895804;29;20457;-74
2023/01/14 03:59:48;;;;;;;4.30;1.27;;;;;;;;;;4895340;29;20470;-71
2023/01/14 04:02:39;;;;;;;3.20;1.30;;;;;;;;;;4888458;29;21026;-74
2023/01/14 04:05:32;;;;;;;1.93;1.00;;;;;;;;;;4896511;29;20462;-72
2023/01/14 04:08:21;;;;;;;3.60;1.30;;;;;;;;;;4892619;29;20483;-73
2023/01/14 04:11:13;;;;;;;2.90;1.30;;;;;;;;;;4886240;29;20562;-73
2023/01/14 04:17:14;;;;;;;3.27;1.20;;;;;;;;;;4897712;29;20446;-73
2023/01/14 04:20:02;;;;;;;4.80;1.47;;;;;;;;;;4895264;29;20877;-72
2023/01/14 04:22:54;;;;;;;4.10;1.10;;;;;;;;;;4902197;29;20463;-74
2023/01/14 04:25:51;;;;;;;2.63;0.93;;;;;;;;;;4892713;29;20841;-74
2023/01/14 04:28:41;;;;;;;5.17;1.17;;;;;;;;;;4895249;29;21028;-74
2023/01/14 04:31:35;;;;;;;2.67;1.30;;;;;;;;;;4886033;29;21025;-73
2023/01/14 04:34:26;;;;;;;1.93;1.10;;;;;;;;;;4888421;29;20486;-73
2023/01/14 04:37:24;;;;;;;2.00;1.10;;;;;;;;;;4902151;29;20971;-73
2023/01/14 04:40:16;;;;;;;3.20;1.50;;;;;;;;;;4892221;29;20559;-74
2023/01/14 04:43:05;;;;;;;4.13;1.07;;;;;;;;;;4888061;29;20811;-73
2023/01/14 04:45:55;;;;;;;3.57;1.37;;;;;;;;;;4892285;29;21131;-74
2023/01/14 04:48:48;;;;;;;3.93;1.60;;;;;;;;;;4888750;29;20489;-74
2023/01/14 04:51:40;;;;;;;4.77;1.67;;;;;;;;;;4885078;29;20590;-74
2023/01/14 04:54:29;;;;;;;2.00;1.20;;;;;;;;;;4886723;29;20466;-73
2023/01/14 04:57:18;;;;;;;2.00;1.43;;;;;;;;;;4886801;29;20462;-75
2023/01/14 05:00:10;;;;;;;4.13;1.93;;;;;;;;;;4888114;29;20545;-72
2023/01/14 05:03:02;;;;;;;5.83;1.27;;;;;;;;;;4889765;29;20459;-74
2023/01/14 05:05:53;;;;;;;5.20;1.50;;;;;;;;;;4887676;29;20456;-73
2023/01/14 05:08:47;;;;;;;4.47;1.53;;;;;;;;;;4890781;29;20526;-74
2023/01/14 05:11:38;;;;;;;2.93;1.53;;;;;;;;;;4889913;29;20495;-72
2023/01/14 05:14:28;;;;;;;3.10;1.90;;;;;;;;;;4889888;29;20459;-73
2023/01/14 05:17:16;;;;;;;6.10;1.90;;;;;;;;;;4882311;29;20466;-75
2023/01/14 05:20:08;;;;;;;4.57;2.10;;;;;;;;;;4882115;29;20486;-74
2023/01/14 05:22:59;;;;;;;5.80;2.30;;;;;;;;;;4878846;29;21287;-71
2023/01/14 05:25:56;;;;;;;4.33;2.60;;;;;;;;;;4887495;29;20992;-74
2023/01/14 05:28:45;;;;;;;4.10;2.53;;;;;;;;;;4892386;29;20477;-74
2023/01/14 05:31:37;;;;;;;5.33;3.57;;;;;;;;;;4888946;29;20870;-74
2023/01/14 05:34:26;;;;;;;7.17;3.80;;;;;;;;;;4885378;29;20450;-73
2023/01/14 05:37:16;;;;;;;9.77;4.97;;;;;;;;;;4885535;29;21111;-73
2023/01/14 05:40:06;;;;;;;6.37;4.87;;;;;;;;;;4892482;29;20498;-72
2023/01/14 05:46:03;;;;;;;10.07;5.90;;;;;;;;;;4892414;29;20985;-75
2023/01/14 05:48:53;;;;;;;7.40;4.90;;;;;;;;;;4892114;29;20482;-74
2023/01/14 05:51:45;;;;;;;7.00;5.23;;;;;;;;;;4884060;29;20488;-74
2023/01/14 05:54:36;;;;;;;9.40;5.60;;;;;;;;;;4889121;29;20465;-75
2023/01/14 05:57:28;;;;;;;10.57;5.80;;;;;;;;;;4896809;29;21370;-75
2023/01/14 06:06:47;;;;;;;16.00;6.07;;;;;;;;;;4892271;29;20454;-74
2023/01/14 06:09:37;;;;;;;10.40;5.33;;;;;;;;;;4893550;29;20477;-74
2023/01/14 06:12:57;;;;;;;9.83;5.37;;;;;;;;;;4884233;29;20497;-74
2023/01/14 06:15:51;;;;;;;13.67;5.83;;;;;;;;;;4891950;29;20832;-73
2023/01/14 06:18:44;;;;;;;8.43;5.60;;;;;;;;;;4890442;29;20548;-73
2023/01/14 06:21:33;;;;;;;8.63;5.33;;;;;;;;;;4893773;29;20585;-75
2023/01/14 06:24:24;;;;;;;6.90;5.10;;;;;;;;;;4887630;29;20458;-72
2023/01/14 06:27:17;;;;;;;10.37;5.43;;;;;;;;;;4888846;29;20467;-74
2023/01/14 06:30:08;;;;;;;12.77;5.80;;;;;;;;;;4889032;29;20534;-72
2023/01/14 06:32:58;;;;;;;9.97;5.40;;;;;;;;;;4877583;29;20457;-73
2023/01/14 06:35:49;;;;;;;13.90;5.13;;;;;;;;;;4889608;29;20467;-74
2023/01/14 06:38:38;;;;;;;7.50;4.67;;;;;;;;;;4894766;29;20488;-72
2023/01/14 06:41:32;;;;;;;10.30;4.10;;;;;;;;;;4887370;29;20497;-73
2023/01/14 06:44:23;;;;;;;11.70;4.63;;;;;;;;;;4883683;29;20991;-72
2023/01/14 06:47:13;;;;;;;10.40;3.90;;;;;;;;;;4896177;29;20466;-75
2023/01/14 06:50:06;;;;;;;9.57;4.20;;;;;;;;;;4894149;29;20998;-73
2023/01/14 06:52:57;;;;;;;7.83;3.50;;;;;;;;;;4895084;29;20596;-74
2023/01/14 06:55:45;;;;;;;7.70;4.23;;;;;;;;;;4884742;29;20462;-74
2023/01/14 06:58:37;;;;;;;7.30;3.13;;;;;;;;;;4888506;29;20556;-75
2023/01/14 07:01:27;;;;;;;9.47;3.60;;;;;;;;;;4890759;29;20628;-74
2023/01/14 07:04:18;;;;;;;8.70;3.37;;;;;;;;;;4885618;29;20549;-73
2023/01/14 07:07:15;;;;;;;5.60;2.77;;;;;;;;;;4885573;29;20521;-74
2023/01/14 07:10:05;;;;;;;6.17;2.87;;;;;;;;;;4883908;29;20891;-72
2023/01/14 07:12:53;;;;;;;7.83;3.17;;;;;;;;;;4920620;23;20526;-72
2023/01/14 07:15:43;;;;;;;11.33;3.60;;;;;;;;;;4934690;28;21060;-72
2023/01/14 07:18:41;;;;;;;8.13;3.40;;;;;;;;;;4934836;28;20467;-72
2023/01/14 07:21:35;;;;;;;7.70;2.80;;;;;;;;;;4941417;28;20622;-73
2023/01/14 07:24:28;;;;;;;5.83;2.90;;;;;;;;;;4944199;28;20546;-72
2023/01/14 07:27:17;;;;;;;8.57;2.73;;;;;;;;;;4936792;28;20472;-73
2023/01/14 07:30:11;;;;;;;7.80;3.10;;;;;;;;;;4946993;28;20487;-72
2023/01/14 07:33:00;;;;;;;7.97;3.17;;;;;;;;;;4938179;28;20854;-72
2023/01/14 07:35:52;;;;;;;9.23;3.33;;;;;;;;;;4941497;28;20452;-73
2023/01/14 07:38:43;;;;;;;8.00;3.10;;;;;;;;;;4936365;28;20547;-73
2023/01/14 07:41:38;;;;;;;10.73;3.97;;;;;;;;;;4942819;28;20479;-73
2023/01/14 07:44:31;;;;;;;10.20;3.57;;;;;;;;;;4945183;28;20844;-73
2023/01/14 07:47:19;;;;;;;8.23;3.83;;;;;;;;;;4939553;28;20467;-72
2023/01/14 07:50:10;;;;;;;6.63;3.63;;;;;;;;;;4945327;28;20932;-73
2023/01/14 07:53:05;;;;;;;7.57;4.27;;;;;;;;;;4935014;28;20522;-73
2023/01/14 07:55:58;;;;;;;8.40;4.60;;;;;;;;;;4934654;28;21096;-73
2023/01/14 07:58:53;;;;;;;12.43;4.87;;;;;;;;;;4937095;28;21054;-72
2023/01/14 08:01:44;;;;;;;10.87;3.93;;;;;;;;;;4940960;28;20597;-72
2023/01/14 08:04:33;;;;;;;9.20;4.43;;;;;;;;;;4934533;28;20558;-73
2023/01/14 08:07:22;;;;;;;8.30;4.10;;;;;;;;;;4933052;28;21006;-73
2023/01/14 08:10:13;;;;;;;7.47;4.03;;;;;;;;;;4935998;28;20494;-72
2023/01/14 08:13:04;;;;;;;12.07;4.13;;;;;;;;;;4941746;28;21181;-72
2023/01/14 08:15:56;;;;;;;12.13;4.53;;;;;;;;;;4935240;28;20477;-71
2023/01/14 08:18:45;;;;;;;9.77;4.40;;;;;;;;;;4943934;28;20854;-73
2023/01/14 08:21:36;;;;;;;6.13;4.30;;;;;;;;;;4942283;28;20475;-73
2023/01/14 08:24:24;;;;;;;16.60;4.57;;;;;;;;;;4943411;28;20470;-73
2023/01/14 08:27:13;;;;;;;11.37;4.43;;;;;;;;;;4926745;28;20459;-77
2023/01/14 08:30:02;;;;;;;12.20;4.77;;;;;;;;;;4944684;28;20484;-76
2023/01/14 08:32:52;;;;;;;7.83;4.33;;;;;;;;;;4938724;28;20490;-75
2023/01/14 08:35:41;;;;;;;11.77;4.50;;;;;;;;;;4940003;28;20463;-76
2023/01/14 08:38:31;;;;;;;12.03;4.53;;;;;;;;;;4931734;28;20468;-74
2023/01/14 08:41:19;;;;;;;13.33;4.30;;;;;;;;;;4944151;28;20755;-76
2023/01/14 08:44:08;;;;;;;9.13;4.13;;;;;;;;;;4935722;28;20460;-75
2023/01/14 08:46:57;;;;;;;12.20;5.27;;;;;;;;;;4944138;28;20482;-75
2023/01/14 08:49:47;;;;;;;13.37;5.60;;;;;;;;;;4952198;28;20542;-75
2023/01/14 08:52:35;;;;;;;10.77;4.93;;;;;;;;;;4949365;28;20484;-77
2023/01/14 08:55:24;;;;;;;16.00;5.40;;;;;;;;;;4937183;28;20459;-78
2023/01/14 08:58:13;;;;;;;16.17;5.83;;;;;;;;;;4931891;28;20807;-75
2023/01/14 09:01:02;;;;;;;11.00;5.10;;;;;;;;;;4942916;28;21168;-75
2023/01/14 09:03:52;;;;;;;13.20;5.73;;;;;;;;;;4935560;28;20582;-76
2023/01/14 09:19:10;;;;;;;10.30;5.07;;;;;;;;;;4919156;28;20471;-77
2023/01/14 09:22:00;;;;;;;11.17;5.40;;;;;;;;;;4915808;28;20484;-75
2023/01/14 09:24:49;;;;;;;17.27;6.13;;;;;;;;;;4934130;28;20451;-76
2023/01/14 09:27:38;;;;;;;11.00;5.23;;;;;;;;;;4948396;28;20483;-75
2023/01/14 09:30:27;;;;;;;11.90;5.90;;;;;;;;;;4944579;28;20499;-75
2023/01/14 09:33:18;;;;;;;13.27;6.90;;;;;;;;;;4942230;28;20539;-75
2023/01/14 09:36:07;;;;;;;16.67;6.53;;;;;;;;;;4941999;28;20452;-76
2023/01/14 09:38:57;;;;;;;13.90;6.20;;;;;;;;;;4947763;28;20457;-78
2023/01/14 09:41:50;;;;;;;15.30;6.40;;;;;;;;;;4941623;28;20626;-76
2023/01/14 09:44:41;;;;;;;11.63;6.00;;;;;;;;;;4947792;28;20462;-75
2023/01/14 09:47:30;;;;;;;10.67;5.73;;;;;;;;;;4945748;28;20463;-76
2023/01/14 09:50:21;;;;;;;10.93;5.53;;;;;;;;;;4936753;28;20476;-75
2023/01/14 09:53:20;;;;;;;11.20;5.83;;;;;;;;;;4949653;28;20471;-76
2023/01/14 09:56:13;;;;;;;14.17;6.30;;;;;;;;;;4946402;28;20467;-76
2023/01/14 09:59:06;;;;;;;15.10;6.87;;;;;;;;;;4944538;28;20471;-76
2023/01/14 10:01:59;;;;;;;9.53;6.37;;;;;;;;;;4953641;28;20861;-75
2023/01/14 10:05:01;;;;;;;10.43;6.00;;;;;;;;;;4946390;28;21248;-75
2023/01/14 10:07:50;;;;;;;14.63;6.83;;;;;;;;;;4946666;28;20460;-76
2023/01/14 10:10:40;;;;;;;14.43;7.07;;;;;;;;;;4939274;28;20544;-76
2023/01/14 10:13:34;;;;;;;19.90;7.57;;;;;;;;;;4943167;28;20590;-77
2023/01/14 10:16:23;;;;;;;15.33;6.73;;;;;;;;;;4945569;28;20452;-77
2023/01/14 10:19:16;;;;;;;15.80;7.67;;;;;;;;;;4945205;28;20462;-76
2023/01/14 10:22:08;;;;;;;15.57;7.17;;;;;;;;;;4946837;28;21143;-75
2023/01/14 10:24:57;;;;;;;13.10;6.90;;;;;;;;;;4941198;28;20566;-76
2023/01/14 10:27:47;;;;;;;14.40;7.10;;;;;;;;;;4946183;28;21076;-78
2023/01/14 10:30:38;;;;;;;14.00;7.90;;;;;;;;;;4945394;28;20666;-75
2023/01/14 10:33:26;;;;;;;17.47;6.00;;;;;;;;;;4942202;28;20490;-76
2023/01/14 10:36:16;;;;;;;12.10;6.30;;;;;;;;;;4942560;28;20452;-75
2023/01/14 10:39:10;;;;;;;14.00;6.77;;;;;;;;;;4940127;28;20554;-75
2023/01/14 10:42:00;;;;;;;9.77;5.60;;;;;;;;;;4946492;28;20474;-75
2023/01/14 10:44:49;;;;;;;18.60;8.20;;;;;;;;;;4943622;28;20459;-79
2023/01/14 10:47:39;;;;;;;16.37;6.23;;;;;;;;;;4949164;28;20471;-75
2023/01/14 10:50:28;;;;;;;15.43;8.00;;;;;;;;;;4943181;28;20483;-75
2023/01/14 10:53:19;;;;;;;13.03;4.70;;;;;;;;;;4942826;28;20480;-77
2023/01/14 10:56:08;;;;;;;18.37;6.20;;;;;;;;;;4946031;28;20463;-76
2023/01/14 10:58:57;;;;;;;12.13;5.93;;;;;;;;;;4943476;28;20928;-78
2023/01/14 11:01:47;;;;;;;13.50;5.23;;;;;;;;;;4943174;28;20480;-75
2023/01/14 11:04:37;;;;;;;11.53;4.43;;;;;;;;;;4951040;28;20495;-76
2023/01/14 11:07:27;;;;;;;11.00;4.70;;;;;;;;;;4945228;28;20518;-75
2023/01/14 11:10:19;;;;;;;10.40;4.73;;;;;;;;;;4941837;28;20532;-75
2023/01/14 11:13:18;;;;;;;13.10;4.93;;;;;;;;;;4944701;28;20630;-76
2023/01/14 11:16:07;;;;;;;10.13;3.77;;;;;;;;;;4946334;28;20466;-75
2023/01/14 11:18:56;;;;;;;21.20;5.33;;;;;;;;;;4954926;28;20452;-76
2023/01/14 11:21:47;;;;;;;8.60;4.93;;;;;;;;;;4956546;28;20471;-76
2023/01/14 11:24:38;;;;;;;13.87;4.50;;;;;;;;;;4939893;28;20455;-76
2023/01/14 11:27:29;;;;;;;10.13;3.80;;;;;;;;;;4943616;28;20478;-75
2023/01/14 11:30:18;;;;;;;10.20;4.40;;;;;;;;;;4942549;28;20480;-75
2023/01/14 11:33:07;;;;;;;14.93;4.83;;;;;;;;;;4945807;28;20537;-75
2023/01/14 11:35:58;;;;;;;8.67;3.83;;;;;;;;;;4944195;28;20463;-75
2023/01/14 11:38:49;;;;;;;10.13;4.10;;;;;;;;;;4942424;28;20815;-75
2023/01/14 11:41:38;;;;;;;7.47;3.53;;;;;;;;;;4946263;28;21014;-75
2023/01/14 11:44:28;;;;;;;11.33;3.77;;;;;;;;;;4948637;28;20502;-75
2023/01/14 11:47:19;;;;;;;10.50;4.17;;;;;;;;;;4954813;28;20834;-76
2023/01/14 11:50:12;;;;;;;9.30;3.47;;;;;;;;;;4950693;28;20565;-76
2023/01/14 11:53:02;;;;;;;12.57;4.60;;;;;;;;;;4950855;28;20582;-78
2023/01/14 11:55:54;;;;;;;9.60;3.90;;;;;;;;;;4952174;28;20463;-76
2023/01/14 11:58:42;;;;;;;13.30;3.73;;;;;;;;;;4945755;28;20456;-76
2023/01/14 12:01:36;;;;;;;7.00;3.50;;;;;;;;;;4943913;28;21005;-76
2023/01/14 12:04:27;;;;;;;8.23;3.90;;;;;;;;;;4948431;28;20455;-76
2023/01/14 12:07:19;;;;;;;7.17;3.03;;;;;;;;;;4951616;28;20459;-75
2023/01/14 12:10:15;;;;;;;5.70;2.87;;;;;;;;;;4953951;28;20471;-75
2023/01/14 12:19:30;;;;;;;6.60;2.93;;;;;;;;;;4949413;28;20467;-76
2023/01/14 12:22:21;;;;;;;6.60;2.77;;;;;;;;;;4946250;28;20479;-75
2023/01/14 12:25:13;;;;;;;4.83;2.90;;;;;;;;;;4938065;28;20849;-77
2023/01/14 12:28:04;;;;;;;6.80;2.70;;;;;;;;;;4940104;28;20494;-76
2023/01/14 12:30:56;;;;;;;9.40;3.43;;;;;;;;;;4940348;28;20517;-75
2023/01/14 12:33:46;;;;;;;8.53;3.30;;;;;;;;;;4939366;28;20506;-76
2023/01/14 12:36:37;;;;;;;11.53;3.37;;;;;;;;;;4938275;28;20522;-75
2023/01/14 12:45:46;;;;;;;5.93;2.90;;;;;;;;;;4949352;28;20470;-76
2023/01/14 12:48:37;;;;;;;7.90;3.40;;;;;;;;;;4939993;28;20583;-75
2023/01/14 12:51:26;;;;;;;7.33;3.40;;;;;;;;;;4948289;28;20486;-78
2023/01/14 12:54:23;;;;;;;6.43;2.87;;;;;;;;;;4948949;28;20472;-76
2023/01/14 12:57:19;;;;;;;9.27;2.60;;;;;;;;;;4939437;28;20455;-76
2023/01/14 13:00:12;;;;;;;4.27;2.40;;;;;;;;;;4946159;28;20502;-76
2023/01/14 13:03:03;;;;;;;11.13;3.53;;;;;;;;;;4952738;28;20467;-75
2023/01/14 13:05:54;;;;;;;9.93;3.23;;;;;;;;;;4948231;28;20456;-75
2023/01/14 13:08:43;;;;;;;6.67;3.13;;;;;;;;;;4951351;28;20455;-75
2023/01/14 13:11:41;;;;;;;10.97;3.43;;;;;;;;;;4950997;28;20622;-75
2023/01/14 13:14:38;;;;;;;6.00;2.87;;;;;;;;;;4955892;23;20506;-75
2023/01/14 13:17:35;;;;;;;7.13;2.67;;;;;;;;;;4923535;28;20464;-76
2023/01/14 13:20:43;;;;;;;10.30;3.03;;;;;;;;;;4923196;28;20479;-75
2023/01/14 13:23:51;;;;;;;5.60;2.90;;;;;;;;;;4940747;28;20451;-76
2023/01/14 13:26:58;;;;;;;5.50;2.70;;;;;;;;;;4942719;28;20471;-75
2023/01/14 13:29:47;;;;;;;6.33;3.67;;;;;;;;;;4947606;28;20468;-76
2023/01/14 13:32:52;;;;;;;6.83;2.77;;;;;;;;;;4940222;28;20487;-77
2023/01/14 13:35:41;;;;;;;5.60;3.07;;;;;;;;;;4944295;28;20896;-74
2023/01/14 13:38:31;;;;;;;6.47;2.90;;;;;;;;;;4942348;28;20461;-74
2023/01/14 13:41:39;;;;;;;5.13;2.70;;;;;;;;;;4947112;28;20484;-75
2023/01/14 13:44:31;;;;;;;5.00;2.33;;;;;;;;;;4943922;28;20481;-75
2023/01/14 13:47:21;;;;;;;7.10;2.97;;;;;;;;;;4937617;28;20472;-74
2023/01/14 13:50:27;;;;;;;3.13;2.40;;;;;;;;;;4937239;28;20483;-74
2023/01/14 13:53:27;;;;;;;11.10;2.80;;;;;;;;;;4937988;28;20562;-74
2023/01/14 13:56:22;;;;;;;5.17;2.70;;;;;;;;;;4945877;28;20953;-75
2023/01/14 13:59:16;;;;;;;4.73;2.00;;;;;;;;;;4927949;28;20599;-77
2023/01/14 14:02:29;;;;;;;5.03;2.27;;;;;;;;;;4949878;28;20463;-75
2023/01/14 14:05:23;;;;;;;6.27;2.80;;;;;;;;;;4949943;28;20476;-75
2023/01/14 14:08:26;;;;;;;4.40;2.40;;;;;;;;;;4946637;28;20971;-75
2023/01/14 14:11:16;;;;;;;4.20;2.10;;;;;;;;;;4951786;28;20547;-76
2023/01/14 14:14:04;;;;;;;8.67;2.80;;;;;;;;;;4949368;28;20495;-76
2023/01/14 14:16:56;;;;;;;3.53;2.80;;;;;;;;;;4941902;28;20452;-75
2023/01/14 14:19:49;;;;;;;7.97;3.20;;;;;;;;;;4943972;28;20472;-75
2023/01/14 14:22:45;;;;;;;4.73;2.53;;;;;;;;;;4947090;28;20456;-76
2023/01/14 14:25:38;;;;;;;6.20;3.17;;;;;;;;;;4946134;28;20475;-76
2023/01/14 14:28:29;;;;;;;3.57;2.30;;;;;;;;;;4948122;28;20453;-75
2023/01/14 14:31:22;;;;;;;7.77;3.00;;;;;;;;;;4949600;28;21131;-76
2023/01/14 14:34:20;;;;;;;4.63;2.50;;;;;;;;;;4945621;28;20486;-75
2023/01/14 14:37:22;;;;;;;7.40;2.70;;;;;;;;;;4948384;28;20459;-75
2023/01/14 14:40:17;;;;;;;4.37;2.50;;;;;;;;;;4947379;28;20478;-76
2023/01/14 14:43:07;;;;;;;4.30;2.70;;;;;;;;;;4947781;28;21169;-75
2023/01/14 14:46:03;;;;;;;4.27;2.50;;;;;;;;;;4947500;28;20456;-74
2023/01/14 14:48:53;;;;;;;5.53;2.57;;;;;;;;;;4943951;28;20558;-77
2023/01/14 14:51:45;;;;;;;5.93;2.93;;;;;;;;;;4941826;28;20874;-76
2023/01/14 14:54:36;;;;;;;5.27;3.30;;;;;;;;;;4946867;28;20479;-77
2023/01/14 14:57:26;;;;;;;5.60;3.33;;;;;;;;;;4945805;28;20463;-77
2023/01/14 15:00:17;;;;;;;3.70;2.40;;;;;;;;;;4946735;28;21081;-76
2023/01/14 15:03:08;;;;;;;5.60;2.63;;;;;;;;;;4946485;28;20943;-76
2023/01/14 15:05:58;;;;;;;3.40;2.37;;;;;;;;;;4953435;28;20464;-76
2023/01/14 15:08:54;;;;;;;6.00;3.27;;;;;;;;;;4948599;28;20553;-76
2023/01/14 15:11:46;;;;;;;6.17;3.60;;;;;;;;;;4950137;28;20894;-75
2023/01/14 15:14:35;;;;;;;3.97;2.60;;;;;;;;;;4949721;28;20491;-76
2023/01/14 15:17:24;;;;;;;6.10;3.17;;;;;;;;;;4944351;28;20495;-76
2023/01/14 15:20:16;;;;;;;4.23;3.00;;;;;;;;;;4946508;28;20563;-75
2023/01/14 15:23:05;;;;;;;5.23;2.70;;;;;;;;;;4941048;28;20456;-76
2023/01/14 15:25:58;;;;;;;5.60;2.90;;;;;;;;;;4951299;28;20867;-73
2023/01/14 15:28:48;;;;;;;5.43;2.80;;;;;;;;;;4946222;28;20460;-75
2023/01/14 15:31:39;;;;;;;4.83;2.87;;;;;;;;;;4958916;28;20467;-74
2023/01/14 15:34:30;;;;;;;4.77;2.73;;;;;;;;;;4946725;28;21505;-75
2023/01/14 15:37:22;;;;;;;4.67;2.40;;;;;;;;;;4949522;28;20455;-74
2023/01/14 15:40:13;;;;;;;4.63;3.23;;;;;;;;;;4947162;28;21017;-75
2023/01/14 15:43:02;;;;;;;4.63;2.13;;;;;;;;;;4947663;28;20569;-76
2023/01/14 15:45:53;;;;;;;7.33;3.70;;;;;;;;;;4942531;28;20459;-75
2023/01/14 15:48:43;;;;;;;3.70;3.30;;;;;;;;;;4945850;28;20455;-77
2023/01/14 15:51:35;;;;;;;2.80;2.53;;;;;;;;;;4946318;28;20864;-75
2023/01/14 15:54:31;;;;;;;4.30;3.80;;;;;;;;;;4940117;28;20526;-74
2023/01/14 15:57:25;;;;;;;8.93;7.33;;;;;;;;;;4945064;28;20463;-77
2023/01/14 16:00:24;;;;;;;6.60;4.70;;;;;;;;;;4941110;28;20494;-75
2023/01/14 16:03:41;;;;;;;8.17;5.20;;;;;;;;;;4946254;28;20456;-77
2023/01/14 16:06:32;;;;;;;7.17;5.93;;;;;;;;;;4949624;28;20455;-75
2023/01/14 16:09:21;;;;;;;11.20;6.60;;;;;;;;;;4946838;28;20458;-76
2023/01/14 16:12:13;;;;;;;7.50;4.90;;;;;;;;;;4947677;28;20455;-75
2023/01/14 16:15:04;;;;;;;2.50;2.30;;;;;;;;;;4945091;28;21031;-75
2023/01/14 16:18:04;;;;;;;6.47;5.37;;;;;;;;;;4949454;28;20460;-76
2023/01/14 16:20:56;;;;;;;5.07;3.93;;;;;;;;;;4948650;28;20558;-76
2023/01/14 16:23:45;;;;;;;3.80;3.20;;;;;;;;;;4950010;28;20813;-76
2023/01/14 16:26:34;;;;;;;3.63;3.30;;;;;;;;;;4949802;28;20549;-76
2023/01/14 16:29:22;;;;;;;3.17;2.87;;;;;;;;;;4946330;28;20460;-75
2023/01/14 16:32:11;;;;;;;3.80;3.10;;;;;;;;;;4958515;28;20469;-76
2023/01/14 16:35:00;;;;;;;4.30;3.30;;;;;;;;;;4954037;28;20487;-76
2023/01/14 16:37:50;;;;;;;2.90;2.17;;;;;;;;;;4953669;28;20951;-74
2023/01/14 16:40:41;;;;;;;3.27;2.83;;;;;;;;;;4941517;28;20483;-76
2023/01/14 16:43:30;;;;;;;3.00;2.40;;;;;;;;;;4948333;28;20511;-75
2023/01/14 16:46:18;;;;;;;5.00;4.47;;;;;;;;;;4949168;28;20542;-73
2023/01/14 16:49:10;;;;;;;2.60;2.40;;;;;;;;;;4946204;28;20486;-76
2023/01/14 16:52:01;;;;;;;31.97;17.83;;;;;;;;;;4950136;28;20448;-75
2023/01/14 16:54:51;;;;;;;17.87;12.87;;;;;;;;;;4947190;28;20475;-77
2023/01/14 16:57:40;;;;;;;4.70;4.20;;;;;;;;;;4945158;28;20952;-76
2023/01/14 17:00:31;;;;;;;4.63;3.60;;;;;;;;;;4945422;28;20998;-75
2023/01/14 17:03:20;;;;;;;5.33;4.50;;;;;;;;;;4947143;28;20587;-74
2023/01/14 17:06:15;;;;;;;6.07;5.50;;;;;;;;;;4949193;28;20552;-76
2023/01/14 17:09:06;;;;;;;3.40;2.97;;;;;;;;;;4947427;28;20451;-76
2023/01/14 17:15:02;;;;;;;6.77;6.13;;;;;;;;;;4944900;28;20483;-76
2023/01/14 17:17:51;;;;;;;5.50;3.90;;;;;;;;;;4948364;28;20464;-76
2023/01/14 17:20:40;;;;;;;3.10;2.80;;;;;;;;;;4947346;28;20980;-75
2023/01/14 17:23:28;;;;;;;3.40;3.10;;;;;;;;;;4948901;28;20955;-75
2023/01/14 17:26:17;;;;;;;3.30;2.70;;;;;;;;;;4952317;28;20480;-75
2023/01/14 17:29:07;;;;;;;2.60;2.40;;;;;;;;;;4941765;28;20463;-73
2023/01/14 17:31:56;;;;;;;3.83;3.43;;;;;;;;;;4945441;28;20448;-74
2023/01/14 17:34:49;;;;;;;3.37;3.07;;;;;;;;;;4940625;28;20494;-76
2023/01/14 17:37:39;;;;;;;3.73;2.90;;;;;;;;;;4952547;28;20463;-75
2023/01/14 17:40:33;;;;;;;3.70;2.67;;;;;;;;;;4950010;28;20478;-75
2023/01/14 17:43:24;;;;;;;2.70;2.50;;;;;;;;;;4944495;28;20479;-75
2023/01/14 17:46:14;;;;;;;2.60;2.40;;;;;;;;;;4951574;28;21100;-74
2023/01/14 17:49:06;;;;;;;2.30;2.10;;;;;;;;;;4944148;28;20519;-75
2023/01/14 17:51:54;;;;;;;2.80;2.60;;;;;;;;;;4948789;28;20573;-75
2023/01/14 17:54:46;;;;;;;2.30;2.20;;;;;;;;;;4950385;28;20487;-77